sensor_id;sensor_type;location;lat;lon;timestamp;P1;durP1;ratioP1;P2;durP2;ratioP2
50773;SDS011;36745;48.544;8.918;2023-11-21T00:01:41;9.52;;;3.97;;
50773;SDS011;36745;48.544;8.918;2023-11-21T00:05:07;9.45;;;3.20;;
50773;SDS011;36745;48.544;8.918;2023-11-21T00:08:28;15.75;;;4.78;;
50773;SDS011;36745;48.544;8.918;2023-11-21T00:11:48;11.00;;;3.67;;
50773;SDS011;36745;48.544;8.918;2023-11-21T00:15:09;7.32;;;3.25;;
50773;SDS011;36745;48.544;8.918;2023-11-21T00:18:30;14.75;;;3.50;;
50773;SDS011;36745;48.544;8.918;2023-11-21T00:21:50;6.88;;;2.50;;
50773;SDS011;36745;48.544;8.918;2023-11-21T00:25:10;10.45;;;3.45;;
50773;SDS011;36745;48.544;8.918;2023-11-21T00:28:29;7.68;;;2.70;;
50773;SDS011;36745;48.544;8.918;2023-11-21T00:31:49;7.10;;;3.10;;
50773;SDS011;36745;48.544;8.918;2023-11-21T00:35:09;6.75;;;2.95;;
50773;SDS011;36745;48.544;8.918;2023-11-21T00:38:29;7.00;;;2.50;;
50773;SDS011;36745;48.544;8.918;2023-11-21T00:41:49;9.02;;;2.80;;
50773;SDS011;36745;48.544;8.918;2023-11-21T00:45:09;6.13;;;3.03;;
50773;SDS011;36745;48.544;8.918;2023-11-21T00:48:28;10.32;;;4.20;;
50773;SDS011;36745;48.544;8.918;2023-11-21T00:51:48;8.27;;;2.97;;
50773;SDS011;36745;48.544;8.918;2023-11-21T00:55:08;14.13;;;3.80;;
50773;SDS011;36745;48.544;8.918;2023-11-21T00:58:28;9.98;;;3.03;;
50773;SDS011;36745;48.544;8.918;2023-11-21T01:01:47;8.75;;;3.15;;
50773;SDS011;36745;48.544;8.918;2023-11-21T01:05:07;8.25;;;3.13;;
50773;SDS011;36745;48.544;8.918;2023-11-21T01:08:27;9.93;;;3.10;;
50773;SDS011;36745;48.544;8.918;2023-11-21T01:11:47;8.85;;;3.08;;
50773;SDS011;36745;48.544;8.918;2023-11-21T01:15:07;8.63;;;2.90;;
50773;SDS011;36745;48.544;8.918;2023-11-21T01:18:27;5.75;;;2.75;;
50773;SDS011;36745;48.544;8.918;2023-11-21T01:21:48;8.13;;;2.90;;
50773;SDS011;36745;48.544;8.918;2023-11-21T01:25:08;7.50;;;2.88;;
50773;SDS011;36745;48.544;8.918;2023-11-21T01:28:28;6.72;;;2.70;;
50773;SDS011;36745;48.544;8.918;2023-11-21T01:31:48;7.00;;;2.50;;
50773;SDS011;36745;48.544;8.918;2023-11-21T01:35:08;7.65;;;2.88;;
50773;SDS011;36745;48.544;8.918;2023-11-21T01:38:28;7.10;;;2.58;;
50773;SDS011;36745;48.544;8.918;2023-11-21T01:41:49;5.18;;;2.67;;
50773;SDS011;36745;48.544;8.918;2023-11-21T01:45:10;9.63;;;2.70;;
50773;SDS011;36745;48.544;8.918;2023-11-21T01:48:32;5.50;;;2.47;;
50773;SDS011;36745;48.544;8.918;2023-11-21T01:51:52;7.82;;;2.25;;
50773;SDS011;36745;48.544;8.918;2023-11-21T01:55:12;8.63;;;2.65;;
50773;SDS011;36745;48.544;8.918;2023-11-21T01:58:35;6.97;;;2.25;;
50773;SDS011;36745;48.544;8.918;2023-11-21T02:01:55;5.78;;;1.75;;
50773;SDS011;36745;48.544;8.918;2023-11-21T02:05:15;6.28;;;1.60;;
50773;SDS011;36745;48.544;8.918;2023-11-21T02:08:37;5.43;;;1.60;;
50773;SDS011;36745;48.544;8.918;2023-11-21T02:11:57;5.22;;;1.67;;
50773;SDS011;36745;48.544;8.918;2023-11-21T02:15:19;3.42;;;1.00;;
50773;SDS011;36745;48.544;8.918;2023-11-21T02:18:46;4.38;;;0.90;;
50773;SDS011;36745;48.544;8.918;2023-11-21T02:22:07;3.28;;;0.82;;
50773;SDS011;36745;48.544;8.918;2023-11-21T02:25:28;4.25;;;1.00;;
50773;SDS011;36745;48.544;8.918;2023-11-21T02:28:52;5.88;;;0.98;;
50773;SDS011;36745;48.544;8.918;2023-11-21T02:32:12;2.75;;;0.90;;
50773;SDS011;36745;48.544;8.918;2023-11-21T02:35:32;2.67;;;0.98;;
50773;SDS011;36745;48.544;8.918;2023-11-21T02:38:52;2.75;;;0.90;;
50773;SDS011;36745;48.544;8.918;2023-11-21T02:42:12;2.38;;;0.82;;
50773;SDS011;36745;48.544;8.918;2023-11-21T02:45:32;3.38;;;1.00;;
50773;SDS011;36745;48.544;8.918;2023-11-21T02:48:51;3.95;;;0.80;;
50773;SDS011;36745;48.544;8.918;2023-11-21T02:52:13;1.98;;;0.70;;
50773;SDS011;36745;48.544;8.918;2023-11-21T02:55:33;4.20;;;1.23;;
50773;SDS011;36745;48.544;8.918;2023-11-21T02:58:55;2.15;;;0.90;;
50773;SDS011;36745;48.544;8.918;2023-11-21T03:02:16;7.53;;;0.88;;
50773;SDS011;36745;48.544;8.918;2023-11-21T03:05:36;4.30;;;1.02;;
50773;SDS011;36745;48.544;8.918;2023-11-21T03:08:56;6.20;;;1.10;;
50773;SDS011;36745;48.544;8.918;2023-11-21T03:12:16;7.45;;;0.90;;
50773;SDS011;36745;48.544;8.918;2023-11-21T03:15:36;2.50;;;0.82;;
50773;SDS011;36745;48.544;8.918;2023-11-21T03:18:56;1.00;;;0.60;;
50773;SDS011;36745;48.544;8.918;2023-11-21T03:22:15;1.75;;;0.70;;
50773;SDS011;36745;48.544;8.918;2023-11-21T03:25:35;3.03;;;0.80;;
50773;SDS011;36745;48.544;8.918;2023-11-21T03:28:55;2.65;;;0.60;;
50773;SDS011;36745;48.544;8.918;2023-11-21T03:32:15;2.78;;;1.00;;
50773;SDS011;36745;48.544;8.918;2023-11-21T03:35:35;2.40;;;0.70;;
50773;SDS011;36745;48.544;8.918;2023-11-21T03:38:54;1.33;;;0.50;;
50773;SDS011;36745;48.544;8.918;2023-11-21T03:42:14;3.78;;;0.70;;
50773;SDS011;36745;48.544;8.918;2023-11-21T03:45:34;5.35;;;0.98;;
50773;SDS011;36745;48.544;8.918;2023-11-21T03:48:54;2.38;;;1.20;;
50773;SDS011;36745;48.544;8.918;2023-11-21T03:52:14;3.78;;;0.68;;
50773;SDS011;36745;48.544;8.918;2023-11-21T03:55:34;1.75;;;0.90;;
50773;SDS011;36745;48.544;8.918;2023-11-21T03:58:54;5.38;;;0.80;;
50773;SDS011;36745;48.544;8.918;2023-11-21T04:02:14;4.00;;;0.95;;
50773;SDS011;36745;48.544;8.918;2023-11-21T04:05:34;3.90;;;0.80;;
50773;SDS011;36745;48.544;8.918;2023-11-21T04:08:54;1.67;;;0.80;;
50773;SDS011;36745;48.544;8.918;2023-11-21T04:12:13;2.33;;;0.60;;
50773;SDS011;36745;48.544;8.918;2023-11-21T04:15:33;1.75;;;0.90;;
50773;SDS011;36745;48.544;8.918;2023-11-21T04:18:53;3.70;;;0.98;;
50773;SDS011;36745;48.544;8.918;2023-11-21T04:22:13;2.35;;;0.70;;
50773;SDS011;36745;48.544;8.918;2023-11-21T04:25:33;2.33;;;0.60;;
50773;SDS011;36745;48.544;8.918;2023-11-21T04:28:52;1.00;;;0.65;;
50773;SDS011;36745;48.544;8.918;2023-11-21T04:32:12;1.58;;;0.90;;
50773;SDS011;36745;48.544;8.918;2023-11-21T04:35:32;2.65;;;0.80;;
50773;SDS011;36745;48.544;8.918;2023-11-21T04:38:52;3.67;;;0.82;;
50773;SDS011;36745;48.544;8.918;2023-11-21T04:42:12;1.65;;;0.50;;
50773;SDS011;36745;48.544;8.918;2023-11-21T04:45:32;3.03;;;2.53;;
50773;SDS011;36745;48.544;8.918;2023-11-21T04:48:51;3.72;;;1.33;;
50773;SDS011;36745;48.544;8.918;2023-11-21T04:52:11;3.95;;;1.10;;
50773;SDS011;36745;48.544;8.918;2023-11-21T04:55:31;6.93;;;1.17;;
50773;SDS011;36745;48.544;8.918;2023-11-21T04:58:51;3.85;;;1.20;;
50773;SDS011;36745;48.544;8.918;2023-11-21T05:02:12;1.48;;;0.63;;
50773;SDS011;36745;48.544;8.918;2023-11-21T05:05:33;4.13;;;1.40;;
50773;SDS011;36745;48.544;8.918;2023-11-21T05:08:53;1.38;;;1.00;;
50773;SDS011;36745;48.544;8.918;2023-11-21T05:12:13;5.30;;;1.00;;
50773;SDS011;36745;48.544;8.918;2023-11-21T05:15:34;3.72;;;1.30;;
50773;SDS011;36745;48.544;8.918;2023-11-21T05:18:53;4.97;;;1.60;;
50773;SDS011;36745;48.544;8.918;2023-11-21T05:22:17;4.57;;;2.38;;
50773;SDS011;36745;48.544;8.918;2023-11-21T05:25:37;3.50;;;1.60;;
50773;SDS011;36745;48.544;8.918;2023-11-21T05:28:57;3.42;;;2.30;;
50773;SDS011;36745;48.544;8.918;2023-11-21T05:32:17;3.28;;;2.30;;
50773;SDS011;36745;48.544;8.918;2023-11-21T05:35:37;7.03;;;2.53;;
50773;SDS011;36745;48.544;8.918;2023-11-21T05:38:56;7.60;;;2.88;;
50773;SDS011;36745;48.544;8.918;2023-11-21T05:42:16;14.20;;;8.55;;
50773;SDS011;36745;48.544;8.918;2023-11-21T05:45:36;28.75;;;15.15;;
50773;SDS011;36745;48.544;8.918;2023-11-21T05:48:56;21.95;;;12.13;;
50773;SDS011;36745;48.544;8.918;2023-11-21T05:52:16;15.43;;;7.78;;
50773;SDS011;36745;48.544;8.918;2023-11-21T05:55:35;7.63;;;5.18;;
50773;SDS011;36745;48.544;8.918;2023-11-21T05:58:55;10.70;;;5.15;;
50773;SDS011;36745;48.544;8.918;2023-11-21T06:02:15;6.97;;;4.13;;
50773;SDS011;36745;48.544;8.918;2023-11-21T06:05:35;6.10;;;4.07;;
50773;SDS011;36745;48.544;8.918;2023-11-21T06:08:58;15.13;;;10.18;;
50773;SDS011;36745;48.544;8.918;2023-11-21T06:12:20;7.90;;;4.30;;
50773;SDS011;36745;48.544;8.918;2023-11-21T06:15:40;8.55;;;4.95;;
50773;SDS011;36745;48.544;8.918;2023-11-21T06:19:00;9.48;;;5.18;;
50773;SDS011;36745;48.544;8.918;2023-11-21T06:22:20;8.45;;;5.03;;
50773;SDS011;36745;48.544;8.918;2023-11-21T06:25:40;11.82;;;6.53;;
50773;SDS011;36745;48.544;8.918;2023-11-21T06:29:00;7.68;;;5.97;;
50773;SDS011;36745;48.544;8.918;2023-11-21T06:32:22;7.57;;;5.88;;
50773;SDS011;36745;48.544;8.918;2023-11-21T06:35:41;7.55;;;4.93;;
50773;SDS011;36745;48.544;8.918;2023-11-21T06:39:01;12.38;;;6.05;;
50773;SDS011;36745;48.544;8.918;2023-11-21T06:42:22;16.08;;;7.68;;
50773;SDS011;36745;48.544;8.918;2023-11-21T06:45:42;16.42;;;9.88;;
50773;SDS011;36745;48.544;8.918;2023-11-21T06:49:01;11.73;;;8.32;;
50773;SDS011;36745;48.544;8.918;2023-11-21T06:52:21;11.48;;;7.40;;
50773;SDS011;36745;48.544;8.918;2023-11-21T06:55:41;8.43;;;6.47;;
50773;SDS011;36745;48.544;8.918;2023-11-21T06:59:01;8.50;;;5.93;;
50773;SDS011;36745;48.544;8.918;2023-11-21T07:02:20;12.35;;;7.53;;
50773;SDS011;36745;48.544;8.918;2023-11-21T07:05:40;12.95;;;5.82;;
50773;SDS011;36745;48.544;8.918;2023-11-21T07:09:00;17.80;;;10.23;;
50773;SDS011;36745;48.544;8.918;2023-11-21T07:12:20;15.38;;;10.07;;
50773;SDS011;36745;48.544;8.918;2023-11-21T07:15:43;15.38;;;10.10;;
50773;SDS011;36745;48.544;8.918;2023-11-21T07:19:03;16.20;;;8.00;;
50773;SDS011;36745;48.544;8.918;2023-11-21T07:22:25;15.23;;;8.75;;
50773;SDS011;36745;48.544;8.918;2023-11-21T07:25:46;15.27;;;9.02;;
50773;SDS011;36745;48.544;8.918;2023-11-21T07:29:06;14.57;;;9.75;;
50773;SDS011;36745;48.544;8.918;2023-11-21T07:32:26;18.50;;;11.30;;
50773;SDS011;36745;48.544;8.918;2023-11-21T07:35:46;23.42;;;13.60;;
50773;SDS011;36745;48.544;8.918;2023-11-21T07:39:06;31.48;;;15.52;;
50773;SDS011;36745;48.544;8.918;2023-11-21T07:42:25;25.45;;;14.75;;
50773;SDS011;36745;48.544;8.918;2023-11-21T07:45:45;20.08;;;12.38;;
50773;SDS011;36745;48.544;8.918;2023-11-21T07:49:05;21.85;;;12.63;;
50773;SDS011;36745;48.544;8.918;2023-11-21T07:52:25;17.52;;;9.13;;
50773;SDS011;36745;48.544;8.918;2023-11-21T07:55:45;19.08;;;9.25;;
50773;SDS011;36745;48.544;8.918;2023-11-21T07:59:06;13.25;;;7.72;;
50773;SDS011;36745;48.544;8.918;2023-11-21T08:02:26;11.90;;;7.03;;
50773;SDS011;36745;48.544;8.918;2023-11-21T08:05:46;11.30;;;5.75;;
50773;SDS011;36745;48.544;8.918;2023-11-21T08:09:06;9.02;;;4.63;;
50773;SDS011;36745;48.544;8.918;2023-11-21T08:12:27;12.27;;;5.05;;
50773;SDS011;36745;48.544;8.918;2023-11-21T08:15:47;6.32;;;3.97;;
50773;SDS011;36745;48.544;8.918;2023-11-21T08:19:07;9.25;;;3.78;;
50773;SDS011;36745;48.544;8.918;2023-11-21T08:22:28;6.22;;;3.42;;
50773;SDS011;36745;48.544;8.918;2023-11-21T08:25:48;6.53;;;4.22;;
50773;SDS011;36745;48.544;8.918;2023-11-21T08:29:08;39.03;;;19.00;;
50773;SDS011;36745;48.544;8.918;2023-11-21T08:32:28;33.88;;;15.60;;
50773;SDS011;36745;48.544;8.918;2023-11-21T08:35:50;3.97;;;2.50;;
50773;SDS011;36745;48.544;8.918;2023-11-21T08:39:10;5.60;;;2.22;;
50773;SDS011;36745;48.544;8.918;2023-11-21T08:42:29;4.05;;;2.28;;
50773;SDS011;36745;48.544;8.918;2023-11-21T08:45:49;2.65;;;2.30;;
50773;SDS011;36745;48.544;8.918;2023-11-21T08:49:09;7.97;;;2.80;;
50773;SDS011;36745;48.544;8.918;2023-11-21T08:52:29;6.82;;;2.95;;
50773;SDS011;36745;48.544;8.918;2023-11-21T08:55:49;4.53;;;3.13;;
50773;SDS011;36745;48.544;8.918;2023-11-21T08:59:09;8.13;;;4.47;;
50773;SDS011;36745;48.544;8.918;2023-11-21T09:02:29;30.60;;;13.02;;
50773;SDS011;36745;48.544;8.918;2023-11-21T09:05:49;29.95;;;13.65;;
50773;SDS011;36745;48.544;8.918;2023-11-21T09:09:10;14.30;;;6.90;;
50773;SDS011;36745;48.544;8.918;2023-11-21T09:12:29;14.95;;;6.43;;
50773;SDS011;36745;48.544;8.918;2023-11-21T09:15:51;9.80;;;5.35;;
50773;SDS011;36745;48.544;8.918;2023-11-21T09:19:11;7.97;;;3.45;;
50773;SDS011;36745;48.544;8.918;2023-11-21T09:22:33;3.78;;;2.72;;
50773;SDS011;36745;48.544;8.918;2023-11-21T09:25:53;4.00;;;2.38;;
50773;SDS011;36745;48.544;8.918;2023-11-21T09:29:16;2.65;;;2.08;;
50773;SDS011;36745;48.544;8.918;2023-11-21T09:32:37;2.42;;;1.90;;
50773;SDS011;36745;48.544;8.918;2023-11-21T09:35:57;3.63;;;2.15;;
50773;SDS011;36745;48.544;8.918;2023-11-21T09:39:17;2.30;;;2.00;;
50773;SDS011;36745;48.544;8.918;2023-11-21T09:42:43;2.55;;;1.73;;
50773;SDS011;36745;48.544;8.918;2023-11-21T09:46:12;2.50;;;2.10;;
50773;SDS011;36745;48.544;8.918;2023-11-21T09:49:39;2.60;;;2.10;;
50773;SDS011;36745;48.544;8.918;2023-11-21T09:56:29;3.28;;;2.67;;
50773;SDS011;36745;48.544;8.918;2023-11-21T09:59:53;27.67;;;22.65;;
50773;SDS011;36745;48.544;8.918;2023-11-21T10:03:19;12.63;;;9.23;;
50773;SDS011;36745;48.544;8.918;2023-11-21T10:06:39;5.40;;;4.55;;
50773;SDS011;36745;48.544;8.918;2023-11-21T10:10:05;5.80;;;3.53;;
50773;SDS011;36745;48.544;8.918;2023-11-21T10:13:27;7.28;;;3.88;;
50773;SDS011;36745;48.544;8.918;2023-11-21T10:16:49;4.07;;;1.98;;
50773;SDS011;36745;48.544;8.918;2023-11-21T10:20:13;3.95;;;2.40;;
50773;SDS011;36745;48.544;8.918;2023-11-21T10:23:33;2.35;;;1.67;;
50773;SDS011;36745;48.544;8.918;2023-11-21T10:26:53;2.47;;;2.03;;
50773;SDS011;36745;48.544;8.918;2023-11-21T10:30:12;5.00;;;2.00;;
50773;SDS011;36745;48.544;8.918;2023-11-21T10:33:32;4.72;;;2.67;;
50773;SDS011;36745;48.544;8.918;2023-11-21T10:36:52;10.95;;;5.15;;
50773;SDS011;36745;48.544;8.918;2023-11-21T10:40:12;5.30;;;3.67;;
50773;SDS011;36745;48.544;8.918;2023-11-21T10:43:32;7.25;;;4.22;;
50773;SDS011;36745;48.544;8.918;2023-11-21T10:46:55;12.02;;;8.70;;
50773;SDS011;36745;48.544;8.918;2023-11-21T10:50:15;6.22;;;5.57;;
50773;SDS011;36745;48.544;8.918;2023-11-21T10:53:38;6.05;;;3.70;;
50773;SDS011;36745;48.544;8.918;2023-11-21T10:57:00;5.57;;;4.82;;
50773;SDS011;36745;48.544;8.918;2023-11-21T11:00:21;4.45;;;2.83;;
50773;SDS011;36745;48.544;8.918;2023-11-21T11:03:41;11.90;;;7.60;;
50773;SDS011;36745;48.544;8.918;2023-11-21T11:07:03;5.90;;;3.70;;
50773;SDS011;36745;48.544;8.918;2023-11-21T11:10:29;1.27;;;1.17;;
50773;SDS011;36745;48.544;8.918;2023-11-21T11:13:48;1.90;;;1.42;;
50773;SDS011;36745;48.544;8.918;2023-11-21T11:17:09;2.03;;;1.80;;
50773;SDS011;36745;48.544;8.918;2023-11-21T11:20:31;6.88;;;2.92;;
50773;SDS011;36745;48.544;8.918;2023-11-21T11:28:04;2.65;;;1.98;;
50773;SDS011;36745;48.544;8.918;2023-11-21T11:31:40;4.95;;;3.40;;
50773;SDS011;36745;48.544;8.918;2023-11-21T11:39:28;4.53;;;4.13;;
50773;SDS011;36745;48.544;8.918;2023-11-21T11:42:58;3.80;;;3.00;;
50773;SDS011;36745;48.544;8.918;2023-11-21T11:46:23;6.15;;;3.42;;
50773;SDS011;36745;48.544;8.918;2023-11-21T11:50:10;3.72;;;1.50;;
50773;SDS011;36745;48.544;8.918;2023-11-21T11:53:39;2.63;;;2.20;;
50773;SDS011;36745;48.544;8.918;2023-11-21T11:57:00;4.07;;;2.38;;
50773;SDS011;36745;48.544;8.918;2023-11-21T12:00:22;8.18;;;5.13;;
50773;SDS011;36745;48.544;8.918;2023-11-21T12:07:54;6.22;;;3.83;;
50773;SDS011;36745;48.544;8.918;2023-11-21T12:11:17;12.20;;;6.40;;
50773;SDS011;36745;48.544;8.918;2023-11-21T12:14:36;13.20;;;7.68;;
50773;SDS011;36745;48.544;8.918;2023-11-21T12:17:56;4.72;;;3.95;;
50773;SDS011;36745;48.544;8.918;2023-11-21T12:21:20;4.55;;;3.20;;
50773;SDS011;36745;48.544;8.918;2023-11-21T12:24:40;5.30;;;2.70;;
50773;SDS011;36745;48.544;8.918;2023-11-21T12:28:00;5.28;;;2.55;;
50773;SDS011;36745;48.544;8.918;2023-11-21T12:31:22;2.47;;;1.70;;
50773;SDS011;36745;48.544;8.918;2023-11-21T12:34:42;2.25;;;1.88;;
50773;SDS011;36745;48.544;8.918;2023-11-21T12:38:03;4.03;;;2.95;;
50773;SDS011;36745;48.544;8.918;2023-11-21T12:41:24;3.88;;;2.83;;
50773;SDS011;36745;48.544;8.918;2023-11-21T12:44:45;4.55;;;2.92;;
50773;SDS011;36745;48.544;8.918;2023-11-21T12:48:06;4.20;;;3.20;;
50773;SDS011;36745;48.544;8.918;2023-11-21T12:54:50;4.00;;;2.80;;
50773;SDS011;36745;48.544;8.918;2023-11-21T12:58:10;3.60;;;3.30;;
50773;SDS011;36745;48.544;8.918;2023-11-21T13:01:32;2.45;;;1.90;;
50773;SDS011;36745;48.544;8.918;2023-11-21T13:04:53;1.92;;;1.73;;
50773;SDS011;36745;48.544;8.918;2023-11-21T13:08:13;5.68;;;2.20;;
50773;SDS011;36745;48.544;8.918;2023-11-21T13:11:36;2.35;;;2.15;;
50773;SDS011;36745;48.544;8.918;2023-11-21T13:15:03;2.75;;;2.25;;
50773;SDS011;36745;48.544;8.918;2023-11-21T13:18:24;2.20;;;2.00;;
50773;SDS011;36745;48.544;8.918;2023-11-21T13:21:45;11.73;;;4.50;;
50773;SDS011;36745;48.544;8.918;2023-11-21T13:25:05;3.78;;;3.30;;
50773;SDS011;36745;48.544;8.918;2023-11-21T13:28:26;4.97;;;4.45;;
50773;SDS011;36745;48.544;8.918;2023-11-21T13:31:51;5.60;;;4.97;;
50773;SDS011;36745;48.544;8.918;2023-11-21T13:35:13;7.70;;;5.40;;
50773;SDS011;36745;48.544;8.918;2023-11-21T13:38:40;8.55;;;5.32;;
50773;SDS011;36745;48.544;8.918;2023-11-21T13:42:03;8.30;;;6.10;;
50773;SDS011;36745;48.544;8.918;2023-11-21T13:45:23;8.90;;;6.40;;
50773;SDS011;36745;48.544;8.918;2023-11-21T13:48:43;5.45;;;4.95;;
50773;SDS011;36745;48.544;8.918;2023-11-21T13:52:09;7.05;;;4.97;;
50773;SDS011;36745;48.544;8.918;2023-11-21T13:55:34;7.05;;;5.20;;
50773;SDS011;36745;48.544;8.918;2023-11-21T13:58:54;5.95;;;5.35;;
50773;SDS011;36745;48.544;8.918;2023-11-21T14:02:15;6.78;;;5.25;;
50773;SDS011;36745;48.544;8.918;2023-11-21T14:05:38;7.50;;;5.65;;
50773;SDS011;36745;48.544;8.918;2023-11-21T14:08:58;5.93;;;4.78;;
50773;SDS011;36745;48.544;8.918;2023-11-21T14:12:20;5.80;;;4.25;;
50773;SDS011;36745;48.544;8.918;2023-11-21T14:15:40;7.07;;;6.20;;
50773;SDS011;36745;48.544;8.918;2023-11-21T14:19:02;7.68;;;6.22;;
50773;SDS011;36745;48.544;8.918;2023-11-21T14:22:34;9.18;;;5.97;;
50773;SDS011;36745;48.544;8.918;2023-11-21T14:25:55;8.20;;;4.40;;
50773;SDS011;36745;48.544;8.918;2023-11-21T14:29:15;3.30;;;3.00;;
50773;SDS011;36745;48.544;8.918;2023-11-21T14:35:59;2.50;;;2.30;;
50773;SDS011;36745;48.544;8.918;2023-11-21T14:39:18;2.65;;;1.80;;
50773;SDS011;36745;48.544;8.918;2023-11-21T14:42:47;2.35;;;2.10;;
50773;SDS011;36745;48.544;8.918;2023-11-21T14:46:07;8.50;;;6.50;;
50773;SDS011;36745;48.544;8.918;2023-11-21T14:49:29;15.95;;;10.32;;
50773;SDS011;36745;48.544;8.918;2023-11-21T14:52:57;9.27;;;6.00;;
50773;SDS011;36745;48.544;8.918;2023-11-21T14:56:18;4.10;;;2.05;;
50773;SDS011;36745;48.544;8.918;2023-11-21T14:59:46;18.60;;;12.40;;
50773;SDS011;36745;48.544;8.918;2023-11-21T15:03:11;3.63;;;2.17;;
50773;SDS011;36745;48.544;8.918;2023-11-21T15:06:51;11.73;;;8.30;;
50773;SDS011;36745;48.544;8.918;2023-11-21T15:10:12;4.00;;;2.97;;
50773;SDS011;36745;48.544;8.918;2023-11-21T15:13:34;2.75;;;2.10;;
50773;SDS011;36745;48.544;8.918;2023-11-21T15:16:53;13.25;;;10.50;;
50773;SDS011;36745;48.544;8.918;2023-11-21T15:20:19;3.28;;;2.35;;
50773;SDS011;36745;48.544;8.918;2023-11-21T15:23:40;4.13;;;3.60;;
50773;SDS011;36745;48.544;8.918;2023-11-21T15:27:01;4.80;;;3.45;;
50773;SDS011;36745;48.544;8.918;2023-11-21T15:30:23;6.80;;;3.47;;
50773;SDS011;36745;48.544;8.918;2023-11-21T15:33:44;3.03;;;2.70;;
50773;SDS011;36745;48.544;8.918;2023-11-21T15:37:04;4.05;;;3.17;;
50773;SDS011;36745;48.544;8.918;2023-11-21T15:40:27;7.03;;;3.10;;
50773;SDS011;36745;48.544;8.918;2023-11-21T15:43:47;6.05;;;5.28;;
50773;SDS011;36745;48.544;8.918;2023-11-21T15:47:09;4.00;;;3.60;;
50773;SDS011;36745;48.544;8.918;2023-11-21T15:50:29;7.25;;;6.55;;
50773;SDS011;36745;48.544;8.918;2023-11-21T15:53:50;3.72;;;3.42;;
50773;SDS011;36745;48.544;8.918;2023-11-21T15:57:12;8.18;;;7.32;;
50773;SDS011;36745;48.544;8.918;2023-11-21T16:00:32;6.75;;;4.57;;
50773;SDS011;36745;48.544;8.918;2023-11-21T16:03:52;3.35;;;2.08;;
50773;SDS011;36745;48.544;8.918;2023-11-21T16:07:12;9.10;;;6.05;;
50773;SDS011;36745;48.544;8.918;2023-11-21T16:10:32;3.90;;;2.22;;
50773;SDS011;36745;48.544;8.918;2023-11-21T16:13:52;5.55;;;4.05;;
50773;SDS011;36745;48.544;8.918;2023-11-21T16:17:12;4.78;;;2.80;;
50773;SDS011;36745;48.544;8.918;2023-11-21T16:20:33;3.78;;;2.90;;
50773;SDS011;36745;48.544;8.918;2023-11-21T16:23:53;4.53;;;2.80;;
50773;SDS011;36745;48.544;8.918;2023-11-21T16:27:12;5.45;;;2.88;;
50773;SDS011;36745;48.544;8.918;2023-11-21T16:30:32;3.03;;;2.60;;
50773;SDS011;36745;48.544;8.918;2023-11-21T16:33:53;5.18;;;4.10;;
50773;SDS011;36745;48.544;8.918;2023-11-21T16:37:12;5.95;;;4.10;;
50773;SDS011;36745;48.544;8.918;2023-11-21T16:40:32;5.00;;;4.15;;
50773;SDS011;36745;48.544;8.918;2023-11-21T16:43:52;4.07;;;3.40;;
50773;SDS011;36745;48.544;8.918;2023-11-21T16:47:12;8.20;;;5.30;;
50773;SDS011;36745;48.544;8.918;2023-11-21T16:50:32;10.30;;;5.97;;
50773;SDS011;36745;48.544;8.918;2023-11-21T16:53:51;10.52;;;5.38;;
50773;SDS011;36745;48.544;8.918;2023-11-21T16:57:11;10.43;;;7.07;;
50773;SDS011;36745;48.544;8.918;2023-11-21T17:00:31;6.15;;;4.57;;
50773;SDS011;36745;48.544;8.918;2023-11-21T17:03:52;7.28;;;6.57;;
50773;SDS011;36745;48.544;8.918;2023-11-21T17:07:11;7.50;;;6.68;;
50773;SDS011;36745;48.544;8.918;2023-11-21T17:10:33;14.80;;;9.90;;
50773;SDS011;36745;48.544;8.918;2023-11-21T17:13:53;19.00;;;12.50;;
50773;SDS011;36745;48.544;8.918;2023-11-21T17:17:13;14.07;;;10.30;;
50773;SDS011;36745;48.544;8.918;2023-11-21T17:20:33;16.23;;;11.65;;
50773;SDS011;36745;48.544;8.918;2023-11-21T17:23:53;31.08;;;18.48;;
50773;SDS011;36745;48.544;8.918;2023-11-21T17:27:12;16.40;;;11.45;;
50773;SDS011;36745;48.544;8.918;2023-11-21T17:30:32;20.70;;;15.10;;
50773;SDS011;36745;48.544;8.918;2023-11-21T17:33:52;60.83;;;37.03;;
50773;SDS011;36745;48.544;8.918;2023-11-21T17:37:13;28.73;;;20.08;;
50773;SDS011;36745;48.544;8.918;2023-11-21T17:40:33;20.30;;;15.45;;
50773;SDS011;36745;48.544;8.918;2023-11-21T17:43:53;16.95;;;13.55;;
50773;SDS011;36745;48.544;8.918;2023-11-21T17:47:13;22.25;;;17.70;;
50773;SDS011;36745;48.544;8.918;2023-11-21T17:50:33;35.67;;;21.13;;
50773;SDS011;36745;48.544;8.918;2023-11-21T17:53:53;16.55;;;11.40;;
50773;SDS011;36745;48.544;8.918;2023-11-21T17:57:20;15.13;;;11.63;;
50773;SDS011;36745;48.544;8.918;2023-11-21T18:00:40;19.02;;;13.75;;
50773;SDS011;36745;48.544;8.918;2023-11-21T18:03:59;16.35;;;12.23;;
50773;SDS011;36745;48.544;8.918;2023-11-21T18:07:19;16.65;;;12.52;;
50773;SDS011;36745;48.544;8.918;2023-11-21T18:10:39;30.98;;;17.63;;
50773;SDS011;36745;48.544;8.918;2023-11-21T18:13:59;15.38;;;12.02;;
50773;SDS011;36745;48.544;8.918;2023-11-21T18:17:19;22.67;;;13.60;;
50773;SDS011;36745;48.544;8.918;2023-11-21T18:20:39;19.27;;;14.45;;
50773;SDS011;36745;48.544;8.918;2023-11-21T18:23:58;19.85;;;13.75;;
50773;SDS011;36745;48.544;8.918;2023-11-21T18:27:18;17.75;;;12.45;;
50773;SDS011;36745;48.544;8.918;2023-11-21T18:30:39;20.92;;;12.80;;
50773;SDS011;36745;48.544;8.918;2023-11-21T18:34:00;22.20;;;14.48;;
50773;SDS011;36745;48.544;8.918;2023-11-21T18:37:20;23.27;;;12.82;;
50773;SDS011;36745;48.544;8.918;2023-11-21T18:40:39;35.85;;;20.25;;
50773;SDS011;36745;48.544;8.918;2023-11-21T18:43:59;17.70;;;12.98;;
50773;SDS011;36745;48.544;8.918;2023-11-21T18:47:19;17.98;;;12.70;;
50773;SDS011;36745;48.544;8.918;2023-11-21T18:50:40;20.90;;;14.07;;
50773;SDS011;36745;48.544;8.918;2023-11-21T18:54:00;22.95;;;15.32;;
50773;SDS011;36745;48.544;8.918;2023-11-21T18:57:20;24.58;;;15.30;;
50773;SDS011;36745;48.544;8.918;2023-11-21T19:00:40;20.65;;;12.80;;
50773;SDS011;36745;48.544;8.918;2023-11-21T19:03:59;20.95;;;15.75;;
50773;SDS011;36745;48.544;8.918;2023-11-21T19:07:20;21.83;;;14.65;;
50773;SDS011;36745;48.544;8.918;2023-11-21T19:10:41;17.30;;;12.93;;
50773;SDS011;36745;48.544;8.918;2023-11-21T19:14:01;20.80;;;12.77;;
50773;SDS011;36745;48.544;8.918;2023-11-21T19:17:21;15.52;;;11.73;;
50773;SDS011;36745;48.544;8.918;2023-11-21T19:20:41;19.35;;;12.77;;
50773;SDS011;36745;48.544;8.918;2023-11-21T19:24:01;19.33;;;12.18;;
50773;SDS011;36745;48.544;8.918;2023-11-21T19:27:20;18.23;;;11.63;;
50773;SDS011;36745;48.544;8.918;2023-11-21T19:30:40;16.85;;;11.85;;
50773;SDS011;36745;48.544;8.918;2023-11-21T19:34:01;19.58;;;12.63;;
50773;SDS011;36745;48.544;8.918;2023-11-21T19:37:20;16.20;;;12.18;;
50773;SDS011;36745;48.544;8.918;2023-11-21T19:40:40;21.88;;;12.52;;
50773;SDS011;36745;48.544;8.918;2023-11-21T19:44:02;17.50;;;12.73;;
50773;SDS011;36745;48.544;8.918;2023-11-21T19:47:22;21.15;;;12.77;;
50773;SDS011;36745;48.544;8.918;2023-11-21T19:50:41;18.63;;;12.77;;
50773;SDS011;36745;48.544;8.918;2023-11-21T19:54:01;23.48;;;17.02;;
50773;SDS011;36745;48.544;8.918;2023-11-21T19:57:22;25.58;;;19.45;;
50773;SDS011;36745;48.544;8.918;2023-11-21T20:00:41;25.15;;;19.25;;
50773;SDS011;36745;48.544;8.918;2023-11-21T20:04:02;23.60;;;16.10;;
50773;SDS011;36745;48.544;8.918;2023-11-21T20:07:22;25.48;;;18.08;;
50773;SDS011;36745;48.544;8.918;2023-11-21T20:10:42;22.38;;;16.17;;
50773;SDS011;36745;48.544;8.918;2023-11-21T20:14:02;19.40;;;13.95;;
50773;SDS011;36745;48.544;8.918;2023-11-21T20:17:23;20.83;;;15.15;;
50773;SDS011;36745;48.544;8.918;2023-11-21T20:20:43;29.83;;;18.77;;
50773;SDS011;36745;48.544;8.918;2023-11-21T20:24:02;50.92;;;29.77;;